createdAt,value
2019-01-22T00:03:21.932Z,12.90
2019-01-22T00:08:26.078Z,14.10
2019-01-22T00:13:30.290Z,14.57
2019-01-22T00:18:34.367Z,13.97
2019-01-22T00:23:38.747Z,13.67
2019-01-22T00:28:43.351Z,15.50
2019-01-22T00:33:47.346Z,13.37
2019-01-22T00:38:51.916Z,15.40
2019-01-22T00:43:56.184Z,15.20
2019-01-22T00:49:00.456Z,13.97
2019-01-22T00:54:05.070Z,15.10
2019-01-22T00:59:09.270Z,16.67
2019-01-22T01:04:13.624Z,14.77
2019-01-22T01:09:17.962Z,15.03
2019-01-22T01:14:22.243Z,13.00
2019-01-22T01:19:26.487Z,14.80
2019-01-22T01:24:30.840Z,15.37
2019-01-22T01:29:35.032Z,13.33
2019-01-22T01:34:39.339Z,13.27
2019-01-22T01:39:43.315Z,13.30
2019-01-22T01:44:47.848Z,15.87
2019-01-22T01:49:52.055Z,14.50
2019-01-22T01:54:56.415Z,12.87
2019-01-22T02:00:00.733Z,15.07
2019-01-22T02:05:05.386Z,14.00
2019-01-22T02:10:11.736Z,13.43
2019-01-22T02:15:21.391Z,12.53
2019-01-22T02:20:39.066Z,11.97
2019-01-22T02:26:27.795Z,12.73
2019-01-22T02:31:57.912Z,12.57
2019-01-22T02:37:29.323Z,11.93
2019-01-22T02:43:22.235Z,12.93
2019-01-22T02:48:52.884Z,12.50
2019-01-22T02:54:24.416Z,12.97
2019-01-22T03:00:15.138Z,12.00
2019-01-22T03:06:00.457Z,11.87
2019-01-22T03:11:25.436Z,12.30
2019-01-22T03:17:12.118Z,11.60
2019-01-22T03:22:29.173Z,12.17
2019-01-22T03:28:12.302Z,12.33
2019-01-22T03:33:34.055Z,12.17
2019-01-22T03:39:12.588Z,12.67
2019-01-22T03:44:44.365Z,12.57
2019-01-22T03:50:18.851Z,12.10
2019-01-22T03:55:50.556Z,13.10
2019-01-22T04:01:10.310Z,11.93
2019-01-22T04:06:24.743Z,12.00
2019-01-22T04:11:38.823Z,11.60
2019-01-22T04:16:43.050Z,10.77
2019-01-22T04:21:47.532Z,12.20
2019-01-22T04:27:05.472Z,11.73
2019-01-22T04:32:26.747Z,11.63
2019-01-22T04:38:15.127Z,10.87
2019-01-22T04:43:57.855Z,12.83
2019-01-22T04:49:30.859Z,10.33
2019-01-22T04:55:09.400Z,11.63
2019-01-22T05:00:49.599Z,12.67
2019-01-22T05:06:33.579Z,12.03
2019-01-22T05:12:34.138Z,11.80
2019-01-22T05:18:01.302Z,12.37
2019-01-22T05:23:46.402Z,10.87
2019-01-22T05:29:33.203Z,11.93
2019-01-22T05:35:05.894Z,11.50
2019-01-22T05:40:48.222Z,11.80
2019-01-22T05:46:29.684Z,11.50
2019-01-22T05:52:12.840Z,11.50
2019-01-22T05:57:48.918Z,11.27
2019-01-22T06:03:10.302Z,11.20
2019-01-22T06:08:29.959Z,10.87
2019-01-22T06:14:06.378Z,10.30
2019-01-22T06:19:31.795Z,13.13
2019-01-22T06:24:54.094Z,12.87
2019-01-22T06:30:44.548Z,9.80
2019-01-22T06:36:24.787Z,10.93
2019-01-22T06:42:15.042Z,10.87
2019-01-22T06:47:38.640Z,11.57
2019-01-22T06:53:08.639Z,9.67
2019-01-22T06:58:49.371Z,10.60
2019-01-22T07:04:14.355Z,10.80
2019-01-22T07:09:54.864Z,11.10
2019-01-22T07:15:36.170Z,11.73
2019-01-22T07:21:15.971Z,12.00
2019-01-22T07:27:10.097Z,10.37
2019-01-22T07:32:50.622Z,10.97
2019-01-22T07:38:19.285Z,10.97
2019-01-22T07:43:50.378Z,11.10
2019-01-22T07:49:32.002Z,10.63
2019-01-22T07:55:05.783Z,10.60
2019-01-22T08:00:34.655Z,10.67
2019-01-22T08:06:21.406Z,10.83
2019-01-22T08:11:55.370Z,9.43
2019-01-22T08:18:05.219Z,11.80
2019-01-22T08:23:32.027Z,11.00
2019-01-22T08:29:13.111Z,11.90
2019-01-22T08:35:03.225Z,11.97
2019-01-22T08:40:49.279Z,11.93
2019-01-22T08:46:11.643Z,10.87
2019-01-22T08:51:54.196Z,10.53
2019-01-22T08:57:31.304Z,10.50
2019-01-22T09:02:51.151Z,11.00
2019-01-22T09:08:16.110Z,10.77
2019-01-22T09:13:47.982Z,9.63
2019-01-22T09:19:29.407Z,9.43
2019-01-22T09:24:44.170Z,10.43
2019-01-22T09:29:56.128Z,9.23
2019-01-22T09:35:46.022Z,10.63
2019-01-22T09:40:50.146Z,9.50
2019-01-22T09:45:54.487Z,8.37
2019-01-22T09:50:58.442Z,8.30
2019-01-22T09:56:02.570Z,7.87
2019-01-22T10:01:06.665Z,7.73
2019-01-22T10:06:11.143Z,8.10
2019-01-22T10:11:15.192Z,7.87
2019-01-22T10:16:19.274Z,7.37
2019-01-22T10:21:23.700Z,6.73
2019-01-22T10:26:27.967Z,7.83
2019-01-22T10:31:32.252Z,8.43
2019-01-22T10:36:36.655Z,8.13
2019-01-22T10:41:40.867Z,7.40
2019-01-22T10:46:45.515Z,8.20
2019-01-22T10:51:49.679Z,7.60
2019-01-22T10:56:53.739Z,7.70
2019-01-22T11:01:57.820Z,7.03
2019-01-22T11:07:02.245Z,7.60
2019-01-22T11:12:06.283Z,7.87
2019-01-22T11:17:10.336Z,8.73
2019-01-22T11:22:14.723Z,8.57
2019-01-22T11:27:18.750Z,8.73
2019-01-22T11:32:23.420Z,8.20
2019-01-22T11:37:27.574Z,8.73
2019-01-22T11:42:32.468Z,7.97
2019-01-22T11:47:36.799Z,8.90
2019-01-22T11:52:41.091Z,8.97
2019-01-22T11:57:45.401Z,8.83
2019-01-22T12:02:49.763Z,8.90
2019-01-22T12:07:54.067Z,10.00
2019-01-22T12:12:58.047Z,8.97
2019-01-22T12:18:02.619Z,7.87
2019-01-22T12:23:06.662Z,9.63
2019-01-22T12:28:10.707Z,8.23
2019-01-22T12:33:14.788Z,8.20
2019-01-22T12:38:18.919Z,8.50
2019-01-22T12:43:22.946Z,8.00
2019-01-22T12:48:27.079Z,8.97
2019-01-22T12:53:31.112Z,7.90
2019-01-22T12:58:35.175Z,8.93
2019-01-22T13:03:39.386Z,8.13
2019-01-22T13:08:43.996Z,9.37
2019-01-22T13:13:48.320Z,9.27
2019-01-22T13:18:52.459Z,10.20
2019-01-22T13:23:57.055Z,8.53
2019-01-22T13:29:01.272Z,8.97
2019-01-22T13:34:05.759Z,9.53
2019-01-22T13:39:10.972Z,9.90
2019-01-22T13:44:15.343Z,9.60
2019-01-22T13:49:19.659Z,10.70
2019-01-22T13:54:23.740Z,10.13
2019-01-22T13:59:27.895Z,12.13
2019-01-22T14:04:31.978Z,11.30
2019-01-22T14:09:36.047Z,10.37
2019-01-22T14:14:40.018Z,12.17
2019-01-22T14:19:44.304Z,11.00
2019-01-22T14:24:48.583Z,11.13
2019-01-22T14:29:52.906Z,11.87
2019-01-22T14:34:57.163Z,12.37
2019-01-22T14:40:01.191Z,14.00
2019-01-22T14:45:06.399Z,13.73
2019-01-22T14:50:13.859Z,14.10
2019-01-22T14:55:18.163Z,16.57
2019-01-22T15:00:24.095Z,16.93
2019-01-22T15:05:28.452Z,16.43
2019-01-22T15:10:32.814Z,15.87
2019-01-22T15:15:37.153Z,17.70
2019-01-22T15:20:41.703Z,18.63
2019-01-22T15:25:45.846Z,16.73
2019-01-22T15:30:49.930Z,16.30
2019-01-22T15:35:54.179Z,16.90
2019-01-22T15:40:58.179Z,17.77
2019-01-22T15:46:02.480Z,17.50
2019-01-22T15:51:06.647Z,18.50
2019-01-22T15:56:10.967Z,16.97
2019-01-22T16:01:15.031Z,17.00
2019-01-22T16:06:19.339Z,16.67
2019-01-22T16:11:23.408Z,16.37
2019-01-22T16:16:27.724Z,16.90
2019-01-22T16:21:31.805Z,16.13
2019-01-22T16:26:35.771Z,18.17
2019-01-22T16:31:40.012Z,18.03
2019-01-22T16:36:44.039Z,17.53
2019-01-22T16:41:48.106Z,18.67
2019-01-22T16:46:52.463Z,17.83
2019-01-22T16:51:57.218Z,19.63
2019-01-22T16:57:01.259Z,18.27
2019-01-22T17:02:05.319Z,18.13
2019-01-22T17:07:09.418Z,18.23
2019-01-22T17:12:13.759Z,19.50
2019-01-22T17:17:18.068Z,19.33
2019-01-22T17:22:22.569Z,20.50
2019-01-22T17:27:27.159Z,18.63
2019-01-22T17:32:44.048Z,18.20
2019-01-22T17:37:48.240Z,19.80
2019-01-22T17:42:53.847Z,20.47
2019-01-22T17:47:59.913Z,20.07
2019-01-22T17:53:07.648Z,22.60
2019-01-22T17:58:10.483Z,20.00
2019-01-22T18:03:14.645Z,20.80
2019-01-22T18:08:19.014Z,22.87
2019-01-22T18:13:23.106Z,22.20
2019-01-22T18:18:27.515Z,21.87
2019-01-22T18:23:31.755Z,21.40
2019-01-22T18:28:35.880Z,23.20
2019-01-22T18:33:40.347Z,21.50
2019-01-22T18:38:44.855Z,22.57
2019-01-22T18:43:49.192Z,19.23
2019-01-22T18:48:53.527Z,19.80
2019-01-22T18:53:57.759Z,21.20
2019-01-22T18:59:01.999Z,20.63
2019-01-22T19:04:06.377Z,21.50
2019-01-22T19:09:10.755Z,25.40
2019-01-22T19:14:14.665Z,22.70
2019-01-22T19:19:18.558Z,22.20
2019-01-22T19:24:22.599Z,21.40
2019-01-22T19:29:26.901Z,21.80
2019-01-22T19:34:31.213Z,22.43
2019-01-22T19:39:35.190Z,21.97
2019-01-22T19:44:39.358Z,23.37
2019-01-22T19:49:43.644Z,23.00
2019-01-22T19:54:47.629Z,24.80
2019-01-22T19:59:51.987Z,23.57
2019-01-22T20:04:56.135Z,23.07
2019-01-22T20:10:00.434Z,24.23
2019-01-22T20:15:05.915Z,23.50
2019-01-22T20:20:15.581Z,24.13
2019-01-22T20:25:20.200Z,24.20
2019-01-22T20:30:35.523Z,24.57
2019-01-22T20:35:39.558Z,24.73
2019-01-22T20:40:43.622Z,24.20
2019-01-22T20:45:47.694Z,24.90
2019-01-22T20:50:51.764Z,23.90
2019-01-22T20:55:56.279Z,23.83
2019-01-22T21:01:00.434Z,22.53
2019-01-22T21:06:04.583Z,22.63
2019-01-22T21:11:08.636Z,23.10
2019-01-22T21:16:13.175Z,23.20
2019-01-22T21:21:17.210Z,22.53
2019-01-22T21:26:21.535Z,24.10
2019-01-22T21:31:25.815Z,21.13
2019-01-22T21:36:29.871Z,23.90
2019-01-22T21:41:34.131Z,22.67
2019-01-22T21:46:38.619Z,21.63
2019-01-22T21:51:42.582Z,20.53
2019-01-22T21:56:46.630Z,21.00
2019-01-22T22:01:50.714Z,21.00
2019-01-22T22:06:55.002Z,21.83
2019-01-22T22:11:59.535Z,22.03
2019-01-22T22:17:03.842Z,20.43
2019-01-22T22:22:07.311Z,20.47
2019-01-22T22:27:11.625Z,20.30
2019-01-22T22:32:16.055Z,20.27
2019-01-22T22:37:20.042Z,20.87
2019-01-22T22:42:24.158Z,21.17
2019-01-22T22:47:28.307Z,19.77
2019-01-22T22:52:32.595Z,20.60
2019-01-22T22:57:36.667Z,20.17
2019-01-22T23:02:40.827Z,21.53
2019-01-22T23:07:45.279Z,20.00
2019-01-22T23:12:49.518Z,19.20
2019-01-22T23:17:53.581Z,21.60
2019-01-22T23:22:57.879Z,20.80
2019-01-22T23:28:01.790Z,20.30
2019-01-22T23:33:06.442Z,18.20
2019-01-22T23:38:10.442Z,19.57
2019-01-22T23:43:14.711Z,18.83
2019-01-22T23:48:18.932Z,19.23
2019-01-22T23:53:22.902Z,19.63
2019-01-22T23:58:26.962Z,19.13
